Home > Products > Valid Products > TAF

000
FTUS45 KBYZ 010520
TAFSHR
TAF
KSHR 010520Z 0106/0206 VRB05KT P6SM FEW100 BKN250=



000
FTUS45 KBYZ 010520
TAFBIL
TAF
KBIL 010520Z 0106/0206 VRB06KT P6SM FEW120 BKN250
     FM011300 24010KT P6SM FEW120 SCT250
     FM011700 15008KT P6SM SCT100 BKN250=



000
FTUS45 KBYZ 010520
TAFMLS
TAF
KMLS 010520Z 0106/0206 15008KT P6SM FEW100 SCT250
     FM010900 VRB06KT P6SM FEW100 SCT250
     FM012100 10007KT P6SM FEW100 SCT250=



000
FTUS45 KBYZ 010520
TAFLVM
TAF
KLVM 010520Z 0106/0206 VRB06KT P6SM SCT100 BKN250
     FM010900 24008KT P6SM SCT100 BKN250
     FM011800 13008KT P6SM SCT080 BKN150=



000
FTUS45 KBYZ 312320
TAFBIL
TAF
KBIL 312320Z 0100/0124 VRB04KT P6SM FEW120 SCT250
     FM010300 24010KT P6SM FEW120 SCT250
     FM011600 15008KT P6SM SCT100 BKN250=



000
FTUS45 KBYZ 312320
TAFMLS
TAF
KMLS 312320Z 0100/0124 15012G20KT P6SM FEW100 SCT250
     FM010300 14006KT P6SM FEW100 SCT250=



000
FTUS45 KBYZ 312320
TAFSHR
TAF
KSHR 312320Z 0100/0124 VRB05KT P6SM FEW100 BKN250=



000
FTUS45 KBYZ 312320
TAFLVM
TAF
KLVM 312320Z 0100/0124 22014G24KT P6SM SCT100 BKN250
     FM010300 24008KT P6SM SCT100 BKN250
     FM011800 13008KT P6SM SCT080 BKN150=



000
FTUS45 KBYZ 312113 AAA
TAFMLS
TAF AMD
KMLS 312113Z 3121/0118 14010KT P6SM FEW100 BKN250=



000
FTUS45 KBYZ 312112 AAA
TAFBIL
TAF AMD
KBIL 312112Z 3121/0118 VRB06KT P6SM FEW100 SCT250
     FM010200 24010KT P6SM FEW100 SCT250=



000
FTUS45 KBYZ 311720
TAFSHR
TAF
KSHR 311720Z 3118/0118 VRB05KT P6SM FEW100 BKN250=



000
FTUS45 KBYZ 311720
TAFMLS
TAF
KMLS 311720Z 3118/0118 14015G25KT P6SM SCT100 BKN250
     FM010200 14009KT P6SM FEW100 BKN250=



000
FTUS45 KBYZ 311720
TAFLVM
TAF
KLVM 311720Z 3118/0118 VRB06KT P6SM SCT100 BKN250
     FM312000 22015G26KT P6SM SCT100 BKN250=



000
FTUS45 KBYZ 311720
TAFBIL
TAF
KBIL 311720Z 3118/0118 19010G18KT P6SM FEW100 SCT250=



000
FTUS45 KBYZ 311456 AAA
TAFMLS
TAF AMD
KMLS 311456Z 3115/0112 13018G28KT P6SM FEW010 SCT100
     FM311700 13018G28KT P6SM FEW010 SCT100
     FM010000 12008KT P6SM BKN250=



000
FTUS45 KBYZ 311120
TAFBIL
TAF
KBIL 311120Z 3112/0112 VRB05KT P6SM FEW100 BKN250
     FM311300 22008KT P6SM BKN200=



000
FTUS45 KBYZ 311120
TAFSHR
TAF
KSHR 311120Z 3112/0112 15007KT P6SM FEW100 SCT200
     FM312100 VRB06KT P6SM BKN250=



000
FTUS45 KBYZ 311120
TAFLVM
TAF
KLVM 311120Z 3112/0112 VRB06KT P6SM FEW100 BKN200
     FM311800 22015G25KT P6SM BKN200
     FM010400 24012KT P6SM BKN150=



000
FTUS45 KBYZ 311120
TAFMLS
TAF
KMLS 311120Z 3112/0112 13014G24KT P6SM SCT100
     FM311400 14011KT P6SM BKN200
     FM010000 12008KT P6SM BKN250=



000
FTUS45 KBYZ 310905 AAB
TAFMLS
TAF AMD
KMLS 310905Z 3109/0106 13014G24KT P6SM OVC012
     FM311400 15015KT P6SM SCT012
     FM311500 15020G30KT P6SM BKN200
     FM010000 12008KT P6SM BKN250=



000
FTUS45 KBYZ 310826 AAA
TAFMLS
TAF AMD
KMLS 310826Z 3108/0106 13010KT P6SM OVC012
     FM311400 15015KT P6SM SCT012
     FM311500 15020G30KT P6SM BKN200
     FM010000 12008KT P6SM BKN250=



000
FTUS45 KBYZ 310520
TAFSHR
TAF
KSHR 310520Z 3106/0106 15009KT P6SM FEW100 SCT200
     FM310900 VRB06KT P6SM FEW100 SCT200
     FM312100 15007KT P6SM BKN250=



000
FTUS45 KBYZ 310520
TAFLVM
TAF
KLVM 310520Z 3106/0106 12010KT P6SM FEW100 BKN200
     FM311000 22015G25KT P6SM BKN200
     FM311600 22020G35KT P6SM BKN150=



000
FTUS45 KBYZ 310520
TAFMLS
TAF
KMLS 310520Z 3106/0106 10010KT P6SM FEW015
     FM311500 15020G30KT P6SM BKN200
     FM010000 12008KT P6SM BKN250=



000
FTUS45 KBYZ 310520
TAFBIL
TAF
KBIL 310520Z 3106/0106 01008KT P6SM SCT250
     FM310900 VRB05KT P6SM FEW100 BKN250
     FM311200 20012KT P6SM BKN200=



000
FTUS45 KBYZ 310247 AAA
TAFLVM
TAF AMD
KLVM 310247Z 3103/3124 10010KT P6SM FEW100 BKN200
     FM311000 22015G25KT P6SM BKN200
     FM311600 22020G35KT P6SM BKN150=



000
FTUS45 KBYZ 302333
TAFBIL
TAF
KBIL 302333Z 3100/3124 10010KT P6SM FEW100 SCT250
     FM310200 VRB05KT P6SM FEW100 BKN250
     FM311800 20012KT P6SM BKN200=



000
FTUS45 KBYZ 302333
TAFMLS
TAF
KMLS 302333Z 3100/3124 06010KT P6SM FEW015
     FM311500 15020G30KT P6SM BKN200=



000
FTUS45 KBYZ 302333
TAFLVM
TAF
KLVM 302333Z 3100/3124 08012KT P6SM FEW100 BKN200
     FM311000 22015G25KT P6SM BKN200
     FM311600 22020G35KT P6SM BKN150=



000
FTUS45 KBYZ 302333
TAFSHR
TAF
KSHR 302333Z 3100/3124 VRB05KT P6SM FEW100 SCT200=



000
FTUS45 KBYZ 301729
TAFBIL
TAF
KBIL 301729Z 3018/3118 22011KT P6SM SKC
     FM302000 10008KT P6SM SCT120
     FM310200 10008KT P6SM SCT120 WS012/13030KT
     FM310900 VRB06KT P6SM SCT120
     FM311300 20013G20KT P6SM SCT200=



000
FTUS45 KBYZ 301729
TAFSHR
TAF
KSHR 301729Z 3018/3118 10006KT P6SM SKC
     FM302000 13008KT P6SM FEW150
     FM310500 VRB06KT P6SM FEW100=



000
FTUS45 KBYZ 301729
TAFMLS
TAF
KMLS 301729Z 3018/3118 05011KT P6SM SKC
     FM310100 10012G17KT P6SM SCT200
     FM310400 13016G25KT P6SM SCT200
     FM311000 13025G40KT P6SM SCT200=



000
FTUS45 KBYZ 301729
TAFLVM
TAF
KLVM 301729Z 3018/3118 10006KT P6SM FEW100
     FM302200 16013G20KT P6SM SCT070
     FM310200 VRB06KT P6SM SCT120
     FM310900 22016G25KT P6SM SCT200=



000
FTUS45 KBYZ 301729
TAFLVM
TAF
KLVM 301729Z 3018/3118 10006KT P6SM FEW100
     FM302200 16013G20KT P6SM SCT070
     FM310200 VRB06KT P6SM SCT120
     FM310900 22016G25KT P6SM SCT200=



000
FTUS45 KBYZ 301729
TAFSHR
TAF
KSHR 301729Z 3018/3118 10006KT P6SM SKC
     FM302000 13008KT P6SM FEW150
     FM310500 VRB06KT P6SM FEW100=



000
FTUS45 KBYZ 301729
TAFBIL
TAF
KBIL 301729Z 3018/3118 22011KT P6SM SKC
     FM302000 10008KT P6SM SCT120
     FM310200 10008KT P6SM SCT120 WS012/13030KT
     FM310900 VRB06KT P6SM SCT120
     FM311300 20013G20KT P6SM SCT200=



000
FTUS45 KBYZ 301729
TAFMLS
TAF
KMLS 301729Z 3018/3118 05011KT P6SM SKC
     FM310100 10012G17KT P6SM SCT200
     FM310400 13016G25KT P6SM SCT200
     FM311000 13025G40KT P6SM SCT200=



000
FTUS45 KBYZ 301411 AAA
TAFBIL
TAF AMD
KBIL 301411Z 3014/3112 21011KT P6SM SKC
     FM302100 10008KT P6SM SCT120=



000
FTUS45 KBYZ 301130
TAFSHR
TAF
KSHR 301130Z 3012/3112 19006KT P6SM SKC
     FM302000 13008KT P6SM FEW150=



000
FTUS45 KBYZ 301130
TAFBIL
TAF
KBIL 301130Z 3012/3112 19014KT P6SM SKC
     FM302100 10008KT P6SM SCT120=



000
FTUS45 KBYZ 301130
TAFMLS
TAF
KMLS 301130Z 3012/3112 31006KT P6SM SKC
     FM301600 VRB06KT P6SM FEW010 SCT030
     FM302000 10012G17KT P6SM SKC=



000
FTUS45 KBYZ 301130
TAFLVM
TAF
KLVM 301130Z 3012/3112 32010KT P6SM SKC
     FM301600 VRB06KT P6SM FEW100
     FM302200 16013G18KT P6SM SCT070=



000
FTUS45 KBYZ 300530
TAFSHR
TAF
KSHR 300530Z 3006/3106 36003KT P6SM SKC
     FM301300 VRB04KT P6SM FEW150=



000
FTUS45 KBYZ 300530
TAFMLS
TAF
KMLS 300530Z 3006/3106 30009KT P6SM BKN080
     FM301000 27006KT P6SM VCFG SCT002
     FM301600 VRB06KT P6SM FEW010 SCT030
     FM302000 08008KT P6SM SKC=



000
FTUS45 KBYZ 300530
TAFLVM
TAF
KLVM 300530Z 3006/3106 31007KT P6SM SKC
     FM301100 22010KT P6SM FEW100
     FM301600 VRB06KT P6SM FEW100
     FM302200 09008KT P6SM SCT070=



000
FTUS45 KBYZ 300530
TAFBIL
TAF
KBIL 300530Z 3006/3106 31013KT P6SM FEW090
     FM300600 22008KT P6SM FEW200
     FM301000 VRB06KT P6SM SCT002
     FM302100 11008KT P6SM SCT120=



000
FTUS45 KBYZ 300302 AAB
TAFBIL
TAF AMD
KBIL 300302Z 3003/3024 31011KT P6SM FEW060 SCT100
     FM300600 22008KT P6SM FEW200
     FM301000 VRB06KT P6SM VCFG SCT002
     FM302100 11008KT P6SM SCT120=



000
FTUS45 KBYZ 300142 AAB
TAFLVM
TAF AMD
KLVM 300142Z 3002/3024 32007KT P6SM SCT100
     FM301100 22010KT P6SM FEW100
     FM301600 VRB06KT P6SM FEW100
     FM302200 09008KT P6SM SCT070=



000
FTUS45 KBYZ 300012 AAA
TAFLVM
TAF AMD
KLVM 300012Z 3000/3024 25011G19KT P6SM SCT100
     FM301100 22010KT P6SM FEW100
     FM301600 VRB06KT P6SM FEW100
     FM302200 09008KT P6SM SCT070=



000
FTUS45 KBYZ 300011 AAA
TAFBIL
TAF AMD
KBIL 300011Z 3000/3024 31011KT P6SM FEW060 SCT100
     FM300100 26010KT P6SM FEW100
     FM300600 22008KT P6SM FEW200
     FM301000 VRB06KT P6SM VCFG SCT002
     FM302100 11008KT P6SM SCT120=



000
FTUS45 KBYZ 292320
TAFLVM
TAF
KLVM 292320Z 3000/3024 27022G30KT P6SM SCT060 BKN080
     FM300100 27015G23KT P6SM SCT100
     FM301100 22010KT P6SM FEW100
     FM301600 VRB06KT P6SM FEW100
     FM302200 09008KT P6SM SCT070=



000
FTUS45 KBYZ 292320
TAFSHR
TAF
KSHR 292320Z 3000/3024 31015KT P6SM SCT090
     FM300200 30010KT P6SM FEW100
     FM301300 VRB04KT P6SM FEW150=



000
FTUS45 KBYZ 292320
TAFMLS
TAF
KMLS 292320Z 3000/3024 32012KT P6SM SCT040
     FM300100 27008KT P6SM FEW100
     FM301000 27006KT P6SM VCFG SCT002
     FM301600 VRB06KT P6SM FEW010 SCT030
     FM302000 08008KT P6SM SKC=



000
FTUS45 KBYZ 292320
TAFBIL
TAF
KBIL 292320Z 3000/3024 31024G32KT P6SM FEW060 SCT100
     FM300100 26010KT P6SM FEW100
     FM300600 22008KT P6SM FEW200
     FM301000 VRB06KT P6SM VCFG SCT002
     FM302100 11008KT P6SM SCT120=



000
FTUS45 KBYZ 292049 AAA
TAFSHR
TAF AMD
KSHR 292049Z 2921/3018 31022G30KT P6SM SCT090
     FM300000 30010KT P6SM FEW100
     FM300300 29004KT P6SM FEW100=



000
FTUS45 KBYZ 292047 AAA
TAFMLS
TAF AMD
KMLS 292047Z 2921/3018 32012KT P6SM SCT100
     FM300300 32008KT P6SM FEW100
     FM301500 08005KT P6SM SKC=



000
FTUS45 KBYZ 292045 AAA
TAFBIL
TAF AMD
KBIL 292045Z 2921/3018 29024G32KT P6SM FEW060 SCT100
     FM292300 29015KT P6SM SCT090
     FM300300 27010KT P6SM FEW100
     FM300600 27008KT P6SM FEW100
     FM301200 25006KT P6SM FEW100=



000
FTUS45 KBYZ 291727
TAFBIL
TAF
KBIL 291727Z 2918/3018 24016G20KT P6SM FEW060 SCT100
     FM292300 29015KT P6SM SCT090
     FM300300 27010KT P6SM FEW100
     FM300600 27008KT P6SM FEW100
     FM301200 25006KT P6SM FEW100=



000
FTUS45 KBYZ 291727
TAFLVM
TAF
KLVM 291727Z 2918/3018 25023G34KT P6SM SCT060 BKN080
     FM292300 27015G25KT P6SM SCT100
     FM300300 26010KT P6SM FEW100
     FM301200 28008KT P6SM FEW100=



000
FTUS45 KBYZ 291727
TAFSHR
TAF
KSHR 291727Z 2918/3018 02005KT P6SM BKN090
     FM292000 31015KT P6SM SCT090
     FM300000 30010KT P6SM FEW100
     FM300300 29004KT P6SM FEW100=



000
FTUS45 KBYZ 291727
TAFMLS
TAF
KMLS 291727Z 2918/3018 15003KT P6SM OVC070
     FM292000 29015G24KT P6SM BKN080
     FM300100 32010KT P6SM SCT100
     FM300300 32008KT P6SM FEW100
     FM301500 08005KT P6SM SKC=



000
FTUS45 KBYZ 291120
TAFBIL
TAF
KBIL 291120Z 2912/3012 25017KT P6SM VCSH SCT090 BKN120
     FM291500 25016G24KT P6SM VCSH FEW090 SCT120
     FM291900 28022G34KT P6SM VCSH FEW090 SCT120
     FM292300 29015KT P6SM FEW090 SCT120=



000
FTUS45 KBYZ 291120
TAFSHR
TAF
KSHR 291120Z 2912/3012 VRB03KT P6SM SCT200
     FM291700 33010G16KT P6SM VCSH BKN090
     FM300100 34008KT P6SM SCT090=



000
FTUS45 KBYZ 291120
TAFMLS
TAF
KMLS 291120Z 2912/3012 16010KT P6SM VCSH BKN120
     FM291600 28013G22KT P6SM VCSH SCT080 BKN100
     FM291900 29015G24KT P6SM SCT100
     FM300300 30010KT P6SM FEW100
     FM301000 35005KT P6SM SCT025=



000
FTUS45 KBYZ 291120
TAFLVM
TAF
KLVM 291120Z 2912/3012 23029G40KT P6SM VCSH SCT040 BKN060
     FM291900 28023G34KT P6SM SCT060 BKN080
     FM292300 27015G25KT P6SM SCT100
     FM300600 32007KT P6SM FEW200=



000
FTUS45 KBYZ 291039 AAA
TAFMLS
TAF AMD
KMLS 291039Z 2911/3006 16010KT P6SM VCSH BKN120
     FM291600 28013G22KT P6SM VCSH SCT080 BKN100
     FM291900 29015G24KT P6SM SCT100
     FM300300 30010KT P6SM FEW100=



000
FTUS45 KBYZ 291039 AAA
TAFMLS
TAF AMD
KMLS 291039Z 2911/3006 16010KT P6SM VCSH BKN120
     FM291600 28013G22KT P6SM VCSH SCT080 BKN100
     FM291900 29015G24KT P6SM SCT100
     FM300300 30010KT P6SM FEW100=



    US Dept of Commerce
    National Oceanic and Atmospheric Administration
    National Weather Service
    1325 East West Highway
    Silver Spring, MD 20910
    Page Author: NWS Internet Services Team
Disclaimer
Information Quality
Credits
Glossary
Privacy Policy
Freedom of Information Act (FOIA)
About Us
Career Opportunities